Flight Track Log - Related Links

Times and Time Zones

All times are in EDT time to prevent confusion due to time zone crossing. See the ASQ5678 flight status page for this flight to view local times or setup timezone preferences in your user account.

Time Position Orientation Groundspeed Altitude Reporting Facility
EDT Latitude Longitude Course Direction KTS MPH feet Rate Location/Type
Sat 01:31:17 PM 42.9667 -87.9000 66° East 147 169 1,500  Level KMKE
Sat 01:32:29 PM 42.9833 -87.8333 71° East 216 249 3,600 1,986 Climbing KMKE
Sat 01:33:42 PM 42.9858 -87.7236 88° East 253 291 6,300 2,267 Climbing Chicago Center
Sat 01:34:00 PM 42.8544 -87.4849 98° East  Level Estimated
Sat 01:34:44 PM 42.9858 -87.6225 90° East 266 306 8,700  Level Chicago Center
Sat 01:35:00 PM 42.8310 -87.3821 90° East  Level Estimated
Sat 01:35:46 PM 42.9883 -87.5131 88° East 286 329 10,900  Level Chicago Center
Sat 01:36:00 PM 42.8629 -87.2836 66° East  Level FlightAware Approximate
Sat 01:36:48 PM 42.9814 -87.3956 95° East 319 367 11,900  Level Chicago Center
Sat 01:37:49 PM 42.9683 -87.2667 98° East 355 409 12,500 780 Climbing Chicago Center
Sat 01:38:51 PM 42.9550 -87.1233 97° East 379 436 13,500 1,065 Climbing Chicago Center
Sat 01:39:53 PM 42.9381 -86.9494 98° East 386 444 14,700 1,113 Climbing Chicago Center
Sat 01:40:55 PM 42.9242 -86.8039 97° East 390 449 15,800 1,024 Climbing Chicago Center
Sat 01:41:56 PM 42.9089 -86.6558 98° East 393 452 16,800 976 Climbing Chicago Center
Sat 01:42:58 PM 42.8947 -86.5083 97° East 395 455 17,800 1,065 Climbing Chicago Center
Sat 01:44:00 PM 42.8775 -86.3592 99° East 402 463 19,000 1,210 Climbing Chicago Center
Sat 01:45:02 PM 42.8492 -86.1800 102° East 408 470 20,300 1,113 Climbing Chicago Center
Sat 01:46:04 PM 42.8253 -86.0289 102° East 415 478 21,300 968 Climbing Chicago Center
Sat 01:47:06 PM 42.8006 -85.8767 102° East 419 482 22,300 976 Climbing Chicago Center
Sat 01:48:07 PM 42.7764 -85.7247 102° East 417 480 23,300 976 Climbing Chicago Center
Sat 01:49:09 PM 42.7517 -85.5711 102° East 418 481 24,300 823 Climbing Chicago Center
Sat 01:50:11 PM 42.7214 -85.3878 103° East 418 481 25,000 339 Climbing Chicago Center
Sat 01:51:13 PM 42.6944 -85.2275 103° East 431 496 25,000  Level Chicago Center
Sat 01:52:15 PM 42.6672 -85.0619 103° East 447 514 25,000  Level Chicago Center
Sat 01:53:16 PM 42.6392 -84.8944 103° East 456 525 25,000  Level Chicago Center
Sat 01:54:18 PM 42.6106 -84.7256 103° East 460 529 25,000  Level Chicago Center
Sat 01:55:20 PM 42.5656 -84.5639 111° Southeast 459 528 25,000  Level Chicago Center
Sat 01:56:22 PM 42.5200 -84.4053 111° Southeast 455 524 25,000  Level Chicago Center
Sat 01:56:56 PM 42.4925 -84.2836 107° East 456 525 25,000  Level Cleveland Center
Sat 01:57:56 PM 42.4622 -84.1156 104° East 456 525 25,000  Level Cleveland Center
Sat 01:58:56 PM 42.4336 -83.9536 103° East 451 519 25,000  Level Cleveland Center
Sat 01:59:56 PM 42.4053 -83.7861 103° East 451 519 25,000  Level Cleveland Center
Sat 02:00:56 PM 42.3678 -83.6242 107° East 451 519 25,000 -100 Level Cleveland Center
Sat 02:01:56 PM 42.3133 -83.4697 115° Southeast 451 519 24,800 -550 Descending Cleveland Center
Sat 02:02:56 PM 42.2586 -83.3242 117° Southeast 445 512 23,900 -900 Descending Cleveland Center
Sat 02:03:56 PM 42.2117 -83.1931 116° Southeast 430 495 23,000 -900 Descending Cleveland Center
Sat 02:04:56 PM 42.1606 -83.0483 115° Southeast 430 495 22,100 -950 Descending Cleveland Center
Sat 02:05:56 PM 42.1075 -82.9033 116° Southeast 430 495 21,100 -1,800 Descending Cleveland Center
Sat 02:06:56 PM 42.0558 -82.7644 117° Southeast 430 495 18,500 -2,950 Descending Cleveland Center
Sat 02:07:56 PM 42.0103 -82.6372 116° Southeast 407 468 15,200 -2,800 Descending Cleveland Center
Sat 02:08:56 PM 41.9644 -82.5183 117° Southeast 376 433 12,900 -2,150 Descending Cleveland Center
Sat 02:09:56 PM 41.9186 -82.3914 116° Southeast 369 425 10,900 -1,806 Descending Cleveland Center
Sat 02:10:29 PM 41.8886 -82.3153 118° Southeast 377 434 10,100 -581 Descending Cleveland Center
Sat 02:11:29 PM 41.8422 -82.1914 117° Southeast 362 417 10,000 -45 Descending Cleveland Center
Sat 02:12:42 PM 41.7478 -82.0917 142° Southeast 371 427 10,000  Level Cleveland Center
Sat 02:13:43 PM 41.6611 -82.0172 147° Southeast 369 425 10,000 -189 Level Cleveland Center
Sat 02:14:49 PM 41.5767 -81.9378 145° Southeast 283 326 9,600 -1,041 Descending Cleveland Center
Sat 02:15:44 PM 41.5208 -81.8978 152° Southeast 275 316 7,900 -1,486 Descending Cleveland Center
Sat 02:16:38 PM 41.4600 -81.9325 203° Southwest 255 293 6,900 -1,409 Descending Cleveland Center
Sat 02:17:39 PM 41.4031 -81.9839 214° Southwest 225 259 5,200 -1,426 Descending Cleveland Center
Sat 02:18:40 PM 41.3669 -82.0522 235° Southwest 242 278 4,000 -694 Descending Cleveland Center
Sat 02:19:40 PM 41.3222 -82.1067 222° Southwest 228 262 3,800 -200 Descending Cleveland Center

Login

Don't have an account? Register now (free) for customized features, flight alerts, and more!